Time;durP1;ratioP1;P1;durP2;ratioP2;P2;SDS_P1;SDS_P2;PMS_P1;PMS_P2;Temp;Humidity;BMP_temperature;BMP_pressure;BME280_temperature;BME280_humidity;BME280_pressure;Samples;Min_cycle;Max_cycle;Signal;HPM_P1;HPM_P2
2023/03/30 00:00:17;;;;;;;4.25;2.75;;;;;;;18.32;47.23;100600.81;5047061;28;20091;-42
2023/03/30 00:02:49;;;;;;;5.05;2.60;;;;;;;18.32;47.28;100598.16;5051663;28;20128;-43
2023/03/30 00:05:17;;;;;;;5.55;3.17;;;;;;;18.32;47.26;100595.47;5049438;28;20049;-42
2023/03/30 00:07:44;;;;;;;3.72;2.50;;;;;;;18.32;47.43;100587.41;5047898;28;20084;-42
2023/03/30 00:10:13;;;;;;;4.28;2.22;;;;;;;18.31;47.45;100591.09;5046924;28;20518;-42
2023/03/30 00:12:42;;;;;;;10.65;2.83;;;;;;;18.31;47.42;100583.06;5046431;28;20053;-42
2023/03/30 00:15:11;;;;;;;4.05;2.70;;;;;;;18.32;47.44;100584.72;5034379;28;20061;-42
2023/03/30 00:17:38;;;;;;;4.53;2.42;;;;;;;18.31;47.70;100572.31;5046810;28;20049;-43
2023/03/30 00:20:10;;;;;;;6.90;2.53;;;;;;;18.31;47.05;100575.84;5052114;28;20053;-40
2023/03/30 00:22:39;;;;;;;6.18;2.50;;;;;;;18.30;47.48;100579.53;5047916;28;20041;-41
2023/03/30 00:25:11;;;;;;;6.00;2.55;;;;;;;18.29;47.08;100575.19;5050538;28;20052;-41
2023/03/30 00:27:39;;;;;;;5.00;2.10;;;;;;;18.29;47.53;100582.34;5052822;28;20055;-40
2023/03/30 00:30:09;;;;;;;4.50;2.10;;;;;;;18.29;47.21;100577.88;5052095;28;20311;-41
2023/03/30 00:32:35;;;;;;;4.15;2.28;;;;;;;18.30;47.36;100570.66;5053246;28;20127;-41
2023/03/30 00:35:04;;;;;;;5.43;2.38;;;;;;;18.29;47.20;100563.59;5052421;28;20136;-41
2023/03/30 00:37:31;;;;;;;4.60;2.10;;;;;;;18.29;46.89;100577.88;5052356;28;20056;-41
2023/03/30 00:39:57;;;;;;;6.55;2.05;;;;;;;18.28;47.15;100570.78;5054966;28;20152;-42
2023/03/30 00:42:24;;;;;;;5.00;2.28;;;;;;;18.29;47.12;100577.88;5051642;28;20054;-42
2023/03/30 00:45:21;;;;;;;3.90;2.35;;;;;;;18.28;47.57;100580.69;5051231;28;20071;-42
2023/03/30 00:48:11;;;;;;;4.57;2.40;;;;;;;18.29;46.98;100585.03;5051040;28;20060;-42
2023/03/30 00:50:51;;;;;;;6.63;2.72;;;;;;;18.25;47.00;100593.44;5049548;28;20041;-41
2023/03/30 00:53:24;;;;;;;3.65;2.22;;;;;;;18.25;47.29;100574.66;5051136;28;20052;-42
2023/03/30 00:55:52;;;;;;;4.15;2.30;;;;;;;18.25;47.23;100580.03;5052656;28;20057;-41
2023/03/30 00:58:21;;;;;;;3.65;2.00;;;;;;;18.24;47.29;100564.91;5050781;28;20057;-41
2023/03/30 01:00:47;;;;;;;4.47;2.55;;;;;;;18.23;47.22;100557.03;5052428;28;20340;-42
2023/03/30 01:03:33;;;;;;;4.25;2.60;;;;;;;18.22;47.52;100558.03;5055230;28;20051;-40
2023/03/30 01:06:04;;;;;;;4.82;2.15;;;;;;;18.21;47.31;100545.59;5051861;28;20155;-40
2023/03/30 01:08:31;;;;;;;3.85;2.30;;;;;;;18.21;47.39;100543.78;5052837;28;20101;-39
2023/03/30 01:11:02;;;;;;;4.80;2.08;;;;;;;18.20;46.94;100544.78;5051124;28;20059;-40
2023/03/30 01:13:33;;;;;;;3.25;1.80;;;;;;;18.20;47.24;100549.31;5051966;28;20082;-41
2023/03/30 01:16:14;;;;;;;3.83;2.20;;;;;;;18.20;47.68;100549.31;5047886;28;20140;-42
2023/03/30 01:18:53;;;;;;;4.18;1.90;;;;;;;18.18;47.39;100546.78;5039548;28;20064;-42
2023/03/30 01:21:45;;;;;;;3.67;2.15;;;;;;;18.16;47.56;100548.78;5053650;28;20286;-41
2023/03/30 01:24:17;;;;;;;4.68;1.90;;;;;;;18.19;47.12;100547.63;5053886;28;20110;-41
2023/03/30 01:26:55;;;;;;;3.95;2.25;;;;;;;18.17;47.31;100544.25;5053842;28;20444;-41
2023/03/30 01:30:00;;;;;;;5.22;2.22;;;;;;;18.16;47.38;100531.84;5052278;28;20045;-41
2023/03/30 01:32:48;;;;;;;3.10;2.08;;;;;;;18.17;46.63;100533.53;5049260;28;20336;-40
2023/03/30 01:35:35;;;;;;;4.10;1.90;;;;;;;18.15;46.85;100535.53;5053603;28;20381;-38
2023/03/30 01:38:08;;;;;;;3.92;2.25;;;;;;;18.16;47.22;100534.53;5050509;28;20045;-41
2023/03/30 01:40:39;;;;;;;4.93;2.40;;;;;;;18.15;46.89;100539.06;5053899;28;20447;-41
2023/03/30 01:43:18;;;;;;;5.15;2.35;;;;;;;18.15;46.91;100519.44;5053388;28;20132;-39
2023/03/30 01:46:03;;;;;;;4.68;1.95;;;;;;;18.15;47.35;100509.56;5049024;28;20059;-40
2023/03/30 01:48:44;;;;;;;3.25;2.17;;;;;;;18.15;47.39;100503.34;5055413;28;20053;-41
2023/03/30 01:51:25;;;;;;;3.10;2.17;;;;;;;18.15;47.06;100509.56;5050339;28;20050;-40
2023/03/30 01:53:59;;;;;;;3.38;1.90;;;;;;;18.16;46.93;100510.41;5050899;28;20052;-41
2023/03/30 01:56:32;;;;;;;;;;;;;;;18.14;47.32;100504.38;5049462;28;20144;-41
2023/03/30 01:59:23;;;;;;;3.55;1.77;;;;;;;18.16;46.73;100502.34;5052484;28;19936;-42
2023/03/30 02:01:53;;;;;;;4.20;2.13;;;;;;;18.16;47.25;100508.53;5045994;28;20048;-41
2023/03/30 02:04:22;;;;;;;5.03;2.50;;;;;;;18.15;47.41;100506.88;5047421;28;20084;-41
2023/03/30 02:06:58;;;;;;;3.45;1.95;;;;;;;18.14;46.86;100499.84;5050526;28;20048;-41
2023/03/30 02:09:26;;;;;;;5.00;2.20;;;;;;;18.15;46.88;100492.63;5053556;28;20275;-41
2023/03/30 02:11:54;;;;;;;5.05;2.67;;;;;;;18.14;46.83;100496.31;5050337;28;20070;-40
2023/03/30 02:14:27;;;;;;;3.08;1.83;;;;;;;18.11;47.42;100492.09;5053371;28;20132;-41
2023/03/30 02:17:27;;;;;;;4.93;2.00;;;;;;;18.11;47.09;100497.47;5051270;28;20041;-41
2023/03/30 02:19:56;;;;;;;3.50;1.85;;;;;;;18.12;47.03;100501.00;5037890;28;20041;-41
2023/03/30 02:22:25;;;;;;;3.25;1.80;;;;;;;18.12;47.18;100509.03;5053501;28;20479;-41
2023/03/30 02:24:54;;;;;;;4.03;2.38;;;;;;;18.09;47.21;100510.22;5050552;28;20045;-41
2023/03/30 02:27:22;;;;;;;4.05;2.10;;;;;;;18.10;46.84;100517.25;5053159;28;20057;-42
2023/03/30 02:29:48;;;;;;;3.28;1.73;;;;;;;18.11;47.29;100512.72;5051829;28;20040;-42
2023/03/30 02:32:21;;;;;;;3.80;2.00;;;;;;;18.08;47.05;100513.88;5052812;28;20040;-41
2023/03/30 02:34:57;;;;;;;4.37;2.43;;;;;;;18.09;47.20;100504.00;5052895;28;20045;-41
2023/03/30 02:37:39;;;;;;;3.95;1.80;;;;;;;18.08;46.74;100513.88;5051337;28;20456;-41
2023/03/30 02:40:42;;;;;;;4.03;2.00;;;;;;;18.08;46.77;100513.03;5048477;28;20131;-42
2023/03/30 02:43:36;;;;;;;4.22;1.60;;;;;;;18.07;47.04;100512.22;5051933;28;20115;-41
2023/03/30 02:46:03;;;;;;;3.28;2.15;;;;;;;18.07;47.26;100506.84;5050172;28;20496;-41
2023/03/30 02:48:42;;;;;;;3.70;1.83;;;;;;;18.06;46.90;100502.50;5051251;28;20055;-40
2023/03/30 02:51:42;;;;;;;2.13;1.42;;;;;;;18.06;47.20;100510.53;5049932;28;20435;-42
2023/03/30 02:54:16;;;;;;;2.70;1.90;;;;;;;18.06;47.00;100507.84;5048165;28;20447;-41
2023/03/30 02:56:57;;;;;;;3.15;2.03;;;;;;;18.06;47.44;100499.81;5046838;28;20057;-41
2023/03/30 02:59:34;;;;;;;3.25;1.77;;;;;;;18.06;46.90;100502.50;5049239;28;20060;-42
2023/03/30 03:02:12;;;;;;;4.05;1.98;;;;;;;18.06;47.14;100499.81;5049088;28;20080;-41
2023/03/30 03:04:42;;;;;;;3.65;2.00;;;;;;;18.08;47.01;100500.47;5044298;28;20050;-41
2023/03/30 03:07:13;;;;;;;5.05;1.63;;;;;;;18.07;46.97;100492.59;5050340;28;20051;-41
2023/03/30 03:09:40;;;;;;;4.28;2.00;;;;;;;18.07;47.05;100481.88;5046029;28;20051;-39
2023/03/30 03:12:06;;;;;;;3.50;1.85;;;;;;;18.08;47.07;100480.88;5048303;28;20056;-41
2023/03/30 03:14:33;;;;;;;2.97;1.63;;;;;;;18.06;47.21;100478.34;5045839;28;20160;-41
2023/03/30 03:16:59;;;;;;;2.60;1.40;;;;;;;18.06;46.92;100477.53;5046714;28;20049;-40
2023/03/30 03:19:26;;;;;;;2.00;1.38;;;;;;;18.06;46.73;100488.25;5051116;28;20057;-40
2023/03/30 03:21:52;;;;;;;3.53;1.75;;;;;;;18.04;47.10;100483.03;5048326;28;20052;-41
2023/03/30 03:24:19;;;;;;;5.35;1.75;;;;;;;18.05;47.30;100478.50;5048638;28;20048;-40
2023/03/30 03:26:46;;;;;;;2.78;1.70;;;;;;;18.04;46.86;100483.03;5049313;28;20080;-41
2023/03/30 03:29:13;;;;;;;4.18;1.90;;;;;;;18.05;47.27;100482.03;5052232;28;20049;-41
2023/03/30 03:31:40;;;;;;;2.97;1.90;;;;;;;18.03;47.11;100478.66;5048301;28;20049;-40
2023/03/30 03:34:06;;;;;;;3.63;1.92;;;;;;;18.03;47.39;100464.44;5049148;28;20045;-41
2023/03/30 03:36:33;;;;;;;3.55;1.80;;;;;;;18.04;46.79;100471.47;5044528;28;20048;-37
2023/03/30 03:39:00;;;;;;;2.92;1.80;;;;;;;18.03;47.05;100462.59;5047576;28;20053;-40
2023/03/30 03:41:26;;;;;;;5.93;1.75;;;;;;;18.03;47.17;100464.44;5049422;28;20045;-39
2023/03/30 03:43:53;;;;;;;2.92;1.48;;;;;;;18.03;47.19;100456.38;5049253;28;20098;-40
2023/03/30 03:46:19;;;;;;;4.32;1.98;;;;;;;18.02;47.04;100463.59;5048456;28;20056;-40
2023/03/30 03:48:46;;;;;;;3.83;1.60;;;;;;;18.02;47.24;100450.19;5047320;28;20375;-41
2023/03/30 03:51:13;;;;;;;4.50;1.95;;;;;;;18.03;47.29;100445.66;5045133;28;20383;-41
2023/03/30 03:53:39;;;;;;;4.88;1.70;;;;;;;18.03;47.01;100451.03;5044868;28;20041;-42
2023/03/30 03:56:07;;;;;;;3.60;1.77;;;;;;;18.03;47.13;100456.38;5044365;28;20053;-40
2023/03/30 03:58:34;;;;;;;2.33;1.50;;;;;;;18.03;47.30;100451.84;5046012;28;20045;-41
2023/03/30 04:01:01;;;;;;;1.95;1.30;;;;;;;18.03;47.22;100440.28;5049629;28;20055;-40
2023/03/30 04:03:29;;;;;;;2.35;1.42;;;;;;;18.02;47.32;100443.97;5052842;28;20045;-40
2023/03/30 04:06:00;;;;;;;3.10;1.55;;;;;;;18.00;47.17;100444.13;5045073;28;20151;-40
2023/03/30 04:08:27;;;;;;;3.05;1.75;;;;;;;18.01;47.25;100448.50;5045952;28;20321;-42
2023/03/30 04:10:54;;;;;;;2.22;1.35;;;;;;;18.01;47.48;100445.84;5046944;28;20049;-41
2023/03/30 04:13:21;;;;;;;3.42;1.50;;;;;;;18.01;47.20;100459.25;5054754;28;20081;-41
2023/03/30 04:15:47;;;;;;;4.78;1.60;;;;;;;18.01;47.53;100453.88;5050665;28;20049;-40
2023/03/30 04:18:14;;;;;;;2.70;1.42;;;;;;;18.01;47.48;100453.88;5055057;28;20349;-40
2023/03/30 04:20:40;;;;;;;2.35;1.33;;;;;;;18.02;47.33;100460.06;5053701;28;20091;-40
2023/03/30 04:23:08;;;;;;;4.22;1.75;;;;;;;18.02;47.30;100455.53;5052911;28;20084;-41
2023/03/30 04:25:35;;;;;;;3.47;1.60;;;;;;;18.02;47.23;100454.72;5055086;28;20124;-41
2023/03/30 04:28:03;;;;;;;2.67;1.48;;;;;;;18.02;47.44;100457.41;5054008;28;20103;-39
2023/03/30 04:30:30;;;;;;;4.63;1.73;;;;;;;18.02;47.32;100463.59;5053574;28;20053;-41
2023/03/30 04:33:03;;;;;;;3.55;1.90;;;;;;;18.01;47.48;100443.16;5055864;28;20052;-41
2023/03/30 04:35:33;;;;;;;5.82;1.90;;;;;;;18.01;47.60;100448.50;5053962;28;20052;-39
2023/03/30 04:38:00;;;;;;;8.23;2.25;;;;;;;17.99;47.67;100443.28;5053783;28;20052;-41
2023/03/30 04:40:27;;;;;;;6.93;2.55;;;;;;;17.98;47.76;100455.03;5051603;28;20065;-41
2023/03/30 04:43:00;;;;;;;4.68;2.03;;;;;;;17.97;47.51;100452.53;5055076;28;20095;-40
2023/03/30 04:45:29;;;;;;;5.57;2.33;;;;;;;17.96;47.64;100445.47;5053475;28;20099;-40
2023/03/30 04:47:55;;;;;;;4.05;2.03;;;;;;;17.93;47.55;100446.66;5054104;28;20041;-40
2023/03/30 04:50:22;;;;;;;5.32;2.30;;;;;;;17.93;47.71;100453.81;5049924;28;20594;-41
2023/03/30 04:52:49;;;;;;;5.00;1.98;;;;;;;17.92;48.17;100449.47;5047532;28;20131;-41
2023/03/30 04:55:15;;;;;;;4.82;2.40;;;;;;;17.90;48.02;100446.97;5053667;28;20044;-41
2023/03/30 04:57:42;;;;;;;6.20;2.92;;;;;;;17.88;47.79;100437.38;5054005;28;20040;-40
2023/03/30 05:00:09;;;;;;;4.57;2.42;;;;;;;17.87;47.92;100433.03;5052853;28;20045;-41
2023/03/30 05:02:36;;;;;;;5.82;2.95;;;;;;;17.86;47.94;100440.25;5055269;28;20063;-41
2023/03/30 05:05:03;;;;;;;5.90;2.28;;;;;;;17.86;48.45;100439.41;5053811;28;20052;-41
2023/03/30 05:07:29;;;;;;;4.35;2.60;;;;;;;17.84;48.35;100441.41;5052681;28;20056;-40
2023/03/30 05:09:56;;;;;;;6.25;2.65;;;;;;;17.82;48.31;100438.88;5053017;28;20053;-41
2023/03/30 05:12:22;;;;;;;5.78;2.53;;;;;;;17.82;48.34;100438.06;5050301;28;20127;-42
2023/03/30 05:14:49;;;;;;;6.18;2.80;;;;;;;17.80;48.66;100424.78;5049527;28;20124;-42
2023/03/30 05:17:16;;;;;;;7.07;2.97;;;;;;;17.79;48.40;100425.81;5051151;28;20063;-40
2023/03/30 05:19:42;;;;;;;5.63;2.70;;;;;;;17.78;48.65;100434.84;5047977;28;20044;-41
2023/03/30 05:22:09;;;;;;;4.32;2.35;;;;;;;17.77;48.34;100430.50;5051167;28;20344;-39
2023/03/30 05:24:35;;;;;;;8.32;3.00;;;;;;;17.76;48.35;100426.13;5050958;28;20524;-40
2023/03/30 05:27:03;;;;;;;7.10;3.00;;;;;;;17.75;48.56;100441.38;5047738;28;20041;-40
2023/03/30 05:29:30;;;;;;;6.03;3.10;;;;;;;17.73;48.64;100446.03;5050634;28;20098;-41
2023/03/30 05:31:57;;;;;;;6.53;3.00;;;;;;;17.73;48.76;100454.06;5051865;28;20088;-40
2023/03/30 05:34:23;;;;;;;7.88;3.13;;;;;;;17.72;48.16;100449.69;5053311;28;20083;-41
2023/03/30 05:36:50;;;;;;;7.07;2.83;;;;;;;17.71;48.52;100452.53;5046040;28;20056;-41
2023/03/30 05:39:17;;;;;;;9.38;3.22;;;;;;;17.70;48.75;100451.72;5053286;28;20385;-40
2023/03/30 05:41:43;;;;;;;8.65;3.60;;;;;;;17.71;48.58;100457.91;5052665;28;20048;-40
2023/03/30 05:44:10;;;;;;;6.18;2.45;;;;;;;17.71;48.70;100456.06;5053009;28;20064;-41
2023/03/30 05:46:36;;;;;;;5.32;2.78;;;;;;;17.69;48.58;100460.75;5048999;28;20055;-40
2023/03/30 05:49:03;;;;;;;7.65;2.90;;;;;;;17.71;48.72;100461.41;5052413;28;20049;-40
2023/03/30 05:51:29;;;;;;;9.27;3.30;;;;;;;17.70;48.67;100454.38;5050474;28;20051;-41
2023/03/30 05:53:57;;;;;;;8.02;3.00;;;;;;;17.72;48.70;100454.22;5053576;28;20049;-37
2023/03/30 05:56:24;;;;;;;9.15;3.72;;;;;;;17.76;48.65;100463.66;5047505;28;20055;-40
2023/03/30 05:58:50;;;;;;;7.78;3.28;;;;;;;17.80;48.76;100472.22;5050928;28;20053;-43
2023/03/30 06:01:19;;;;;;;9.23;2.80;;;;;;;17.81;48.60;100463.16;5048586;28;20048;-42
2023/03/30 06:03:46;;;;;;;9.00;3.67;;;;;;;17.84;48.30;100473.56;5052579;28;20095;-41
2023/03/30 06:06:13;;;;;;;6.13;3.03;;;;;;;17.86;48.10;100469.75;5049265;28;20075;-40
2023/03/30 06:08:40;;;;;;;8.38;3.22;;;;;;;17.89;48.25;100473.91;5049629;28;20071;-42
2023/03/30 06:11:08;;;;;;;10.65;3.38;;;;;;;17.90;48.62;100472.94;5049031;28;20064;-41
2023/03/30 06:13:35;;;;;;;7.15;3.40;;;;;;;17.92;48.63;100481.66;5052273;28;20049;-41
2023/03/30 06:16:01;;;;;;;11.00;3.13;;;;;;;17.94;48.32;100485.03;5049941;28;20341;-42
2023/03/30 06:18:29;;;;;;;8.43;3.58;;;;;;;17.99;48.59;100485.38;5050548;28;20049;-42
2023/03/30 06:20:56;;;;;;;9.15;3.20;;;;;;;18.01;48.24;100494.09;5047542;28;20053;-42
2023/03/30 06:23:22;;;;;;;10.32;3.28;;;;;;;18.03;47.74;100489.41;5052684;28;20053;-41
2023/03/30 06:25:51;;;;;;;11.40;3.22;;;;;;;18.05;47.67;100494.59;5048376;28;20089;-42
2023/03/30 06:28:19;;;;;;;10.30;3.80;;;;;;;18.06;47.62;100496.28;5048805;28;20665;-43
2023/03/30 06:30:48;;;;;;;9.32;3.25;;;;;;;18.07;47.58;100501.47;5051086;28;20051;-42
2023/03/30 06:33:16;;;;;;;7.95;2.83;;;;;;;18.07;47.83;100496.13;5051353;28;20049;-42
2023/03/30 06:35:51;;;;;;;8.32;3.30;;;;;;;18.08;47.94;100503.16;5052523;28;20040;-43
2023/03/30 06:38:19;;;;;;;13.45;3.67;;;;;;;18.08;47.58;100497.78;5043407;28;20044;-42
2023/03/30 06:40:46;;;;;;;9.68;3.20;;;;;;;18.09;47.52;100502.19;5043851;28;20084;-39
2023/03/30 06:43:21;;;;;;;11.93;3.75;;;;;;;18.09;47.59;100506.66;5048415;28;20463;-42
2023/03/30 06:45:50;;;;;;;12.85;3.58;;;;;;;18.10;47.55;100506.53;5045740;28;20045;-42
2023/03/30 06:48:18;;;;;;;7.30;3.03;;;;;;;18.09;47.79;100509.34;5048579;28;20049;-42
2023/03/30 06:50:48;;;;;;;8.40;3.47;;;;;;;18.08;47.41;100515.72;5051283;28;20049;-43
2023/03/30 06:53:15;;;;;;;8.05;2.95;;;;;;;18.06;47.67;100507.84;5049961;28;20500;-42
2023/03/30 06:55:42;;;;;;;8.02;3.22;;;;;;;18.05;47.81;100510.69;5050342;28;20294;-42
2023/03/30 06:58:09;;;;;;;12.32;4.40;;;;;;;18.03;47.65;100518.91;5051478;28;20055;-41
2023/03/30 07:00:36;;;;;;;10.68;3.38;;;;;;;18.02;47.40;100508.34;5044683;28;20122;-41
2023/03/30 07:03:02;;;;;;;10.77;3.50;;;;;;;18.01;47.67;100523.59;5051064;28;20409;-43
2023/03/30 07:05:30;;;;;;;10.48;4.03;;;;;;;18.00;48.54;100519.22;5049110;28;20045;-42
2023/03/30 07:07:57;;;;;;;15.02;3.80;;;;;;;18.01;47.88;100531.66;5048388;28;20052;-42
2023/03/30 07:10:23;;;;;;;8.32;3.42;;;;;;;18.02;48.06;100529.81;5050655;28;21727;-42
2023/03/30 07:12:50;;;;;;;6.88;2.92;;;;;;;18.00;47.96;100525.41;5051650;28;20075;-41
2023/03/30 07:15:17;;;;;;;8.88;3.60;;;;;;;18.03;48.30;100534.16;5047676;28;20049;-41
2023/03/30 07:17:43;;;;;;;11.93;3.55;;;;;;;18.05;48.08;100534.81;5049450;28;20102;-41
2023/03/30 07:20:14;;;;;;;8.85;3.90;;;;;;;18.06;48.07;100537.34;5048899;28;20056;-42
2023/03/30 07:22:41;;;;;;;11.82;3.88;;;;;;;18.08;48.17;100554.09;5049498;28;20411;-41
2023/03/30 07:25:08;;;;;;;12.32;4.05;;;;;;;18.11;48.10;100547.59;5049445;28;20049;-42
2023/03/30 07:27:36;;;;;;;11.60;4.10;;;;;;;18.13;48.00;100541.09;5047493;28;20045;-42
2023/03/30 07:30:06;;;;;;;13.45;5.00;;;;;;;18.15;47.93;100539.06;5047056;28;20431;-42
2023/03/30 07:32:49;;;;;;;13.93;3.88;;;;;;;18.17;48.03;100542.44;5049141;28;20416;-43
2023/03/30 07:35:16;;;;;;;13.63;4.25;;;;;;;18.20;48.00;100533.22;5050080;28;20052;-43
2023/03/30 07:37:42;;;;;;;14.00;4.18;;;;;;;18.22;47.92;100550.84;5054812;28;20234;-43
2023/03/30 07:40:10;;;;;;;10.02;4.43;;;;;;;18.24;48.35;100558.72;5050559;28;20056;-42
2023/03/30 07:42:37;;;;;;;14.13;4.07;;;;;;;18.27;47.73;100566.44;5048685;28;20059;-42
2023/03/30 07:45:04;;;;;;;10.82;3.67;;;;;;;18.29;47.78;100552.84;5051416;28;20045;-42
2023/03/30 07:47:31;;;;;;;15.32;4.82;;;;;;;18.30;47.58;100557.22;5055369;28;20144;-41
2023/03/30 07:49:57;;;;;;;11.82;3.78;;;;;;;18.32;47.84;100566.78;5052392;28;20376;-42
2023/03/30 07:52:24;;;;;;;9.75;4.07;;;;;;;18.34;47.62;100561.28;5049544;28;20384;-40
2023/03/30 07:54:53;;;;;;;14.25;4.47;;;;;;;18.35;47.92;100561.09;5052756;28;20063;-42
2023/03/30 07:57:21;;;;;;;14.98;4.07;;;;;;;18.36;47.83;100567.31;5051156;28;20152;-43
2023/03/30 07:59:48;;;;;;;15.18;4.35;;;;;;;18.38;47.84;100574.19;5052386;28;20072;-42
2023/03/30 08:02:14;;;;;;;11.73;4.70;;;;;;;18.41;47.72;100575.69;5055286;28;20441;-43
2023/03/30 08:04:42;;;;;;;13.57;4.68;;;;;;;18.42;47.61;100575.56;5052242;28;20055;-43
2023/03/30 08:07:10;;;;;;;15.05;5.03;;;;;;;18.44;47.69;100586.94;5052767;28;20053;-41
2023/03/30 08:09:37;;;;;;;17.33;5.35;;;;;;;18.45;48.04;100582.41;5052955;28;20322;-41
2023/03/30 08:12:04;;;;;;;19.95;5.05;;;;;;;18.46;47.78;100584.13;5050265;28;20084;-42
2023/03/30 08:14:31;;;;;;;9.68;4.75;;;;;;;18.47;47.96;100578.56;5052908;28;20437;-42
2023/03/30 08:16:58;;;;;;;20.50;5.07;;;;;;;18.48;47.96;100585.63;5050215;28;20360;-42
2023/03/30 08:19:25;;;;;;;15.10;4.65;;;;;;;18.51;47.80;100581.78;5051457;28;20135;-42
2023/03/30 08:21:52;;;;;;;17.77;5.05;;;;;;;18.52;47.91;100583.44;5051789;28;20136;-42
2023/03/30 08:24:19;;;;;;;12.82;5.13;;;;;;;18.53;47.77;100595.03;5048972;28;20456;-42
2023/03/30 08:26:46;;;;;;;13.65;4.68;;;;;;;18.53;47.28;100593.19;5051951;28;20053;-42
2023/03/30 08:29:12;;;;;;;16.23;4.40;;;;;;;18.54;47.62;100589.50;5051781;28;20055;-42
2023/03/30 08:31:39;;;;;;;15.00;4.78;;;;;;;18.56;47.67;100597.38;5049709;28;20048;-43
2023/03/30 08:34:06;;;;;;;13.93;5.13;;;;;;;18.56;47.32;100597.38;5053405;28;20056;-42
2023/03/30 08:36:33;;;;;;;13.57;4.47;;;;;;;18.57;47.57;100604.44;5048445;28;20080;-42
2023/03/30 08:39:00;;;;;;;14.63;4.50;;;;;;;18.58;47.58;100596.25;5054452;28;20316;-42
2023/03/30 08:41:26;;;;;;;14.20;3.97;;;;;;;18.60;47.88;100601.44;5049726;28;20053;-41
2023/03/30 08:44:05;;;;;;;12.88;4.80;;;;;;;18.61;47.41;100609.31;5050702;28;20084;-42
2023/03/30 08:46:32;;;;;;;11.45;4.13;;;;;;;18.61;47.63;100598.56;5047639;28;20049;-40
2023/03/30 08:49:06;;;;;;;9.57;4.20;;;;;;;18.64;47.90;100592.88;5053206;28;20084;-42
2023/03/30 08:51:34;;;;;;;13.77;4.88;;;;;;;18.65;47.61;100591.03;5051560;28;20060;-43
2023/03/30 08:54:05;;;;;;;14.45;4.90;;;;;;;18.67;47.79;100599.78;5053326;28;20524;-42
2023/03/30 08:56:43;;;;;;;13.45;3.83;;;;;;;18.69;47.54;100601.31;5047805;28;20052;-40
2023/03/30 08:59:28;;;;;;;12.32;4.32;;;;;;;18.70;47.85;100600.31;5051772;28;20052;-42
2023/03/30 09:02:01;;;;;;;12.07;4.10;;;;;;;18.73;47.63;100609.88;5049049;28;20082;-42
2023/03/30 09:04:36;;;;;;;12.93;4.07;;;;;;;18.76;48.23;100612.25;5048577;28;20118;-43
2023/03/30 09:07:13;;;;;;;14.85;3.92;;;;;;;18.78;47.88;100617.47;5052777;28;20056;-43
2023/03/30 09:09:43;;;;;;;8.45;3.58;;;;;;;18.81;47.70;100611.75;5051994;28;20067;-43
2023/03/30 09:12:46;;;;;;;12.07;4.10;;;;;;;18.85;48.08;100634.59;5050882;28;20463;-42
2023/03/30 09:15:24;;;;;;;7.43;3.17;;;;;;;18.88;48.06;100623.53;5045573;28;20060;-42
2023/03/30 09:18:11;;;;;;;11.93;3.95;;;;;;;18.92;47.67;100619.50;5048305;28;20049;-43
2023/03/30 09:20:40;;;;;;;13.15;4.22;;;;;;;18.97;47.67;100627.88;5049271;28;20056;-43
2023/03/30 09:23:16;;;;;;;9.27;3.80;;;;;;;18.98;48.01;100625.06;5044362;28;20453;-43
2023/03/30 09:25:53;;;;;;;11.70;3.97;;;;;;;18.99;48.02;100626.72;5044707;28;20374;-43
2023/03/30 09:28:58;;;;;;;9.68;3.47;;;;;;;19.04;48.14;100638.81;5051561;28;20514;-41
2023/03/30 09:31:33;;;;;;;10.05;3.50;;;;;;;19.07;48.07;100644.72;5045693;28;20160;-43
2023/03/30 09:34:26;;;;;;;11.80;3.55;;;;;;;19.06;47.78;100648.41;5053206;28;20341;-41
2023/03/30 09:36:56;;;;;;;12.73;3.92;;;;;;;19.11;47.42;100650.59;5051263;28;20052;-43
2023/03/30 09:39:28;;;;;;;9.27;2.95;;;;;;;19.10;47.21;100656.97;5048886;28;20429;-43
2023/03/30 09:42:18;;;;;;;9.50;3.78;;;;;;;19.11;47.12;100654.13;5047607;28;20041;-42
2023/03/30 09:44:58;;;;;;;13.23;3.63;;;;;;;19.14;47.46;100659.16;5050486;28;20049;-43
2023/03/30 09:47:27;;;;;;;11.40;3.63;;;;;;;19.18;48.00;100659.69;5052504;28;20492;-43
2023/03/30 09:49:58;;;;;;;8.95;3.55;;;;;;;19.22;47.15;100661.88;5053100;28;20068;-43
2023/03/30 09:52:28;;;;;;;8.02;3.50;;;;;;;19.25;47.76;100668.75;5051431;28;20057;-42
2023/03/30 09:54:56;;;;;;;7.70;3.00;;;;;;;19.30;47.66;100646.78;5050665;28;20050;-43
2023/03/30 09:57:31;;;;;;;10.95;3.75;;;;;;;19.33;47.36;100652.63;5052698;28;20594;-42
2023/03/30 10:00:00;;;;;;;12.63;3.30;;;;;;;19.40;47.00;100652.81;5049848;28;20429;-41
2023/03/30 10:02:29;;;;;;;15.38;3.58;;;;;;;19.44;47.02;100667.59;5052649;28;20055;-43
2023/03/30 10:05:02;;;;;;;7.43;2.60;;;;;;;19.47;47.66;100668.09;5049848;28;20122;-43
2023/03/30 10:07:39;;;;;;;12.15;3.70;;;;;;;19.51;47.57;100681.22;5053394;28;20140;-42
2023/03/30 10:10:31;;;;;;;12.57;3.88;;;;;;;19.53;47.43;100671.13;5049542;28;20087;-41
2023/03/30 10:13:13;;;;;;;11.50;3.20;;;;;;;19.56;47.54;100668.94;5052472;28;20057;-42
2023/03/30 10:15:45;;;;;;;16.13;4.38;;;;;;;19.59;47.24;100663.22;5047439;28;20297;-43
2023/03/30 10:18:26;;;;;;;10.83;3.13;;;;;;;19.58;47.25;100677.69;5050247;28;20344;-42
2023/03/30 10:21:03;;;;;;;11.90;4.07;;;;;;;19.61;47.61;100681.88;5049327;28;20045;-43
2023/03/30 10:23:33;;;;;;;10.23;3.03;;;;;;;19.63;47.08;100679.91;5053383;28;20045;-43
2023/03/30 10:26:02;;;;;;;11.30;3.00;;;;;;;19.66;47.53;100677.72;5047676;28;20464;-43
2023/03/30 10:28:32;;;;;;;14.73;3.55;;;;;;;19.69;46.77;100673.84;5052822;28;20049;-42
2023/03/30 10:31:04;;;;;;;11.63;3.10;;;;;;;19.69;46.69;100666.59;5049913;28;20045;-43
2023/03/30 10:33:38;;;;;;;10.18;3.10;;;;;;;19.70;46.68;100673.69;5052007;28;20402;-43
2023/03/30 10:36:06;;;;;;;11.60;3.13;;;;;;;19.73;47.34;100667.94;5049437;28;20151;-43
2023/03/30 10:38:33;;;;;;;11.52;3.67;;;;;;;19.74;46.78;100674.19;5050659;28;20063;-42
2023/03/30 10:41:07;;;;;;;8.75;2.95;;;;;;;19.75;46.46;100675.03;5048117;28;20044;-43
2023/03/30 10:43:35;;;;;;;12.35;2.90;;;;;;;19.75;47.00;100683.09;5049761;28;20061;-43
2023/03/30 10:46:10;;;;;;;8.57;2.67;;;;;;;19.73;46.44;100689.47;5048316;28;20045;-42
2023/03/30 10:49:01;;;;;;;15.20;3.65;;;;;;;19.75;46.21;100691.16;5050769;28;20056;-43
2023/03/30 10:51:46;;;;;;;8.95;2.70;;;;;;;19.75;46.55;100686.63;5043659;28;20353;-42
2023/03/30 10:54:31;;;;;;;12.57;3.00;;;;;;;19.75;46.71;100694.69;5039993;28;20057;-42
2023/03/30 10:57:17;;;;;;;8.07;2.65;;;;;;;19.79;46.85;100692.50;5051280;28;20052;-43
2023/03/30 10:59:58;;;;;;;11.35;2.95;;;;;;;19.82;46.82;100697.53;5046703;28;20052;-43
2023/03/30 11:02:37;;;;;;;11.63;3.53;;;;;;;19.86;46.23;100688.09;5043447;28;20053;-43
2023/03/30 11:05:15;;;;;;;11.68;3.45;;;;;;;19.87;46.54;100687.94;5046702;28;20049;-42
2023/03/30 11:07:55;;;;;;;10.38;2.95;;;;;;;19.93;46.53;100683.72;5049151;28;20135;-43
2023/03/30 11:10:31;;;;;;;9.32;3.08;;;;;;;19.96;46.69;100683.41;5049921;28;20573;-42
2023/03/30 11:13:03;;;;;;;10.00;3.08;;;;;;;19.96;46.53;100689.63;5049731;28;20368;-43
2023/03/30 11:15:41;;;;;;;12.20;2.85;;;;;;;19.95;45.87;100697.88;5045788;28;20056;-43
2023/03/30 11:18:11;;;;;;;8.65;2.70;;;;;;;19.95;46.07;100696.00;5050967;28;20051;-43
2023/03/30 11:20:54;;;;;;;10.25;3.10;;;;;;;19.94;46.58;100698.88;5051105;28;20420;-42
2023/03/30 11:23:32;;;;;;;12.75;3.25;;;;;;;19.95;45.97;100708.63;5046427;28;20053;-43
2023/03/30 11:26:07;;;;;;;8.60;2.97;;;;;;;19.96;46.36;100707.63;5048893;28;20051;-42
2023/03/30 11:29:05;;;;;;;11.52;3.30;;;;;;;19.94;46.40;100707.78;5046714;28;20083;-43
2023/03/30 11:31:52;;;;;;;13.25;3.60;;;;;;;19.94;46.41;100710.47;5047434;28;20432;-43
2023/03/30 11:34:33;;;;;;;10.20;3.10;;;;;;;19.93;45.87;100721.41;5051459;28;20076;-43
2023/03/30 11:37:11;;;;;;;12.80;2.80;;;;;;;19.93;45.87;100718.69;5050182;28;20049;-42
2023/03/30 11:39:44;;;;;;;12.20;3.65;;;;;;;19.93;45.83;100713.31;5049132;28;20070;-42
2023/03/30 11:42:25;;;;;;;12.27;3.20;;;;;;;19.92;46.28;100733.16;5050572;28;20460;-42